createdAt,value
2018-11-28T00:01:30.730Z,65.42
2018-11-28T00:03:59.515Z,67.82
2018-11-28T00:06:28.994Z,64.97
2018-11-28T00:08:58.903Z,69.05
2018-11-28T00:11:29.664Z,65.28
2018-11-28T00:13:59.170Z,72.62
2018-11-28T00:16:27.219Z,63.52
2018-11-28T00:18:55.543Z,71.00
2018-11-28T00:21:24.900Z,63.85
2018-11-28T00:23:54.324Z,65.17
2018-11-28T00:26:24.076Z,63.95
2018-11-28T00:28:55.499Z,72.72
2018-11-28T00:31:24.175Z,64.90
2018-11-28T00:33:53.068Z,66.05
2018-11-28T00:36:21.199Z,64.47
2018-11-28T00:38:50.141Z,67.70
2018-11-28T00:41:18.270Z,63.85
2018-11-28T00:43:47.293Z,70.15
2018-11-28T00:46:15.819Z,71.40
2018-11-28T00:48:46.245Z,66.30
2018-11-28T00:51:16.119Z,73.12
2018-11-28T00:53:45.532Z,66.05
2018-11-28T00:56:14.323Z,69.32
2018-11-28T00:58:42.466Z,62.40
2018-11-28T01:01:10.853Z,68.40
2018-11-28T01:03:39.846Z,65.28
2018-11-28T01:06:08.590Z,65.50
2018-11-28T01:08:36.702Z,57.90
2018-11-28T01:11:05.639Z,67.58
2018-11-28T01:13:35.480Z,61.53
2018-11-28T01:16:03.638Z,65.30
2018-11-28T01:18:31.958Z,54.20
2018-11-28T01:21:02.225Z,72.05
2018-11-28T01:23:31.687Z,68.52
2018-11-28T01:26:02.979Z,72.72
2018-11-28T01:28:31.508Z,59.48
2018-11-28T01:30:59.617Z,60.35
2018-11-28T01:33:27.728Z,69.27
2018-11-28T01:35:55.890Z,67.10
2018-11-28T01:38:25.710Z,65.25
2018-11-28T01:40:54.496Z,69.22
2018-11-28T01:43:23.328Z,60.43
2018-11-28T01:45:52.426Z,58.75
2018-11-28T01:48:21.063Z,68.52
2018-11-28T01:50:50.079Z,61.05
2018-11-28T01:53:19.079Z,63.70
2018-11-28T01:55:47.373Z,64.77
2018-11-28T01:58:15.580Z,62.35
2018-11-28T02:00:44.055Z,68.67
2018-11-28T02:03:13.089Z,61.05
2018-11-28T02:05:41.395Z,63.30
2018-11-28T02:08:09.680Z,65.47
2018-11-28T02:10:39.680Z,64.00
2018-11-28T02:13:09.067Z,65.85
2018-11-28T02:15:38.440Z,58.75
2018-11-28T02:18:07.180Z,65.50
2018-11-28T02:20:36.685Z,59.58
2018-11-28T02:23:05.338Z,71.47
2018-11-28T02:25:34.395Z,68.70
2018-11-28T02:28:03.297Z,54.75
2018-11-28T02:30:32.855Z,64.87
2018-11-28T02:33:01.499Z,65.80
2018-11-28T02:35:31.312Z,67.03
2018-11-28T02:37:59.564Z,54.98
2018-11-28T02:40:27.673Z,56.45
2018-11-28T02:42:56.301Z,73.07
2018-11-28T02:45:24.676Z,69.22
2018-11-28T02:47:53.352Z,64.67
2018-11-28T02:50:22.255Z,63.05
2018-11-28T02:52:50.337Z,63.00
2018-11-28T02:55:19.879Z,60.90
2018-11-28T02:57:49.898Z,62.30
2018-11-28T03:00:22.827Z,65.78
2018-11-28T03:02:53.044Z,67.05
2018-11-28T03:05:21.333Z,61.05
2018-11-28T03:07:50.242Z,65.10
2018-11-28T03:10:22.956Z,65.70
2018-11-28T03:12:52.624Z,62.90
2018-11-28T03:15:53.922Z,61.63
2018-11-28T03:18:23.730Z,66.65
2018-11-28T03:20:52.480Z,65.70
2018-11-28T03:23:20.765Z,59.50
2018-11-28T03:25:49.779Z,62.48
2018-11-28T03:28:17.850Z,57.17
2018-11-28T03:30:45.913Z,60.28
2018-11-28T03:33:14.202Z,65.85
2018-11-28T03:35:43.431Z,60.58
2018-11-28T03:38:14.234Z,58.28
2018-11-28T03:40:43.329Z,65.80
2018-11-28T03:43:12.417Z,62.88
2018-11-28T03:45:40.487Z,68.50
2018-11-28T03:48:09.241Z,62.15
2018-11-28T03:50:37.924Z,68.95
2018-11-28T03:53:07.050Z,74.60
2018-11-28T03:55:36.419Z,76.28
2018-11-28T03:58:04.645Z,80.32
2018-11-28T04:00:34.257Z,70.50
2018-11-28T04:03:03.064Z,71.42
2018-11-28T04:05:32.161Z,68.05
2018-11-28T04:08:02.196Z,62.90
2018-11-28T04:10:31.475Z,69.97
2018-11-28T04:12:59.654Z,68.40
2018-11-28T04:15:28.955Z,61.95
2018-11-28T04:17:57.273Z,77.05
2018-11-28T04:20:25.586Z,60.35
2018-11-28T04:22:54.310Z,61.08
2018-11-28T04:25:23.624Z,57.00
2018-11-28T04:27:53.844Z,67.55
2018-11-28T04:30:24.409Z,57.58
2018-11-28T04:32:53.725Z,63.63
2018-11-28T04:35:23.496Z,66.25
2018-11-28T04:37:52.225Z,64.67
2018-11-28T04:40:21.816Z,66.22
2018-11-28T04:42:51.106Z,56.83
2018-11-28T04:45:22.772Z,63.02
2018-11-28T04:47:53.435Z,74.75
2018-11-28T04:50:21.664Z,58.28
2018-11-28T04:52:50.262Z,66.75
2018-11-28T04:55:19.306Z,64.37
2018-11-28T04:57:54.136Z,59.58
2018-11-28T05:00:23.874Z,73.67
2018-11-28T05:02:53.147Z,67.20
2018-11-28T05:05:22.773Z,69.80
2018-11-28T05:07:51.783Z,63.75
2018-11-28T05:10:27.922Z,64.70
2018-11-28T05:12:56.786Z,66.12
2018-11-28T05:15:27.411Z,67.45
2018-11-28T05:17:57.076Z,63.08
2018-11-28T05:20:31.163Z,71.28
2018-11-28T05:23:00.057Z,66.95
2018-11-28T05:25:29.121Z,65.12
2018-11-28T05:27:58.198Z,75.05
2018-11-28T05:30:28.389Z,64.70
2018-11-28T05:32:57.826Z,77.47
2018-11-28T05:35:32.028Z,66.53
2018-11-28T05:38:00.719Z,65.65
2018-11-28T05:40:29.510Z,70.12
2018-11-28T05:42:59.519Z,65.67
2018-11-28T05:45:27.716Z,73.97
2018-11-28T05:47:56.032Z,66.02
2018-11-28T05:50:24.874Z,73.37
2018-11-28T05:52:53.842Z,70.40
2018-11-28T05:55:23.740Z,82.92
2018-11-28T05:57:52.507Z,73.28
2018-11-28T06:00:28.066Z,75.32
2018-11-28T06:02:57.223Z,73.15
2018-11-28T06:05:25.709Z,66.22
2018-11-28T06:07:54.697Z,67.65
2018-11-28T06:10:23.532Z,69.72
2018-11-28T06:12:52.990Z,73.42
2018-11-28T06:15:21.288Z,71.70
2018-11-28T06:17:49.710Z,82.27
2018-11-28T06:20:19.523Z,65.72
2018-11-28T06:22:48.416Z,67.55
2018-11-28T06:25:17.735Z,72.65
2018-11-28T06:27:47.254Z,66.33
2018-11-28T06:30:17.739Z,63.50
2018-11-28T06:32:51.352Z,66.62
2018-11-28T06:35:15.699Z,71.92
2018-11-28T06:37:44.357Z,70.10
2018-11-28T06:40:23.563Z,68.15
2018-11-28T06:42:47.855Z,71.02
2018-11-28T06:45:22.864Z,68.65
2018-11-28T06:47:51.980Z,74.30
2018-11-28T06:50:21.322Z,70.83
2018-11-28T06:52:50.909Z,67.60
2018-11-28T06:55:22.448Z,66.00
2018-11-28T06:57:51.895Z,101.47
2018-11-28T07:00:22.036Z,69.22
2018-11-28T07:02:51.989Z,74.03
2018-11-28T07:05:21.205Z,77.17
2018-11-28T07:07:51.585Z,68.07
2018-11-28T07:10:20.949Z,67.60
2018-11-28T07:12:50.264Z,69.22
2018-11-28T07:15:20.754Z,75.37
2018-11-28T07:17:50.437Z,70.78
2018-11-28T07:20:18.715Z,76.65
2018-11-28T07:22:48.998Z,73.78
2018-11-28T07:25:20.304Z,76.70
2018-11-28T07:27:50.024Z,66.62
2018-11-28T07:30:20.862Z,72.65
2018-11-28T07:32:50.196Z,95.15
2018-11-28T07:35:18.307Z,80.70
2018-11-28T07:37:47.906Z,75.92
2018-11-28T07:40:25.546Z,72.67
2018-11-28T07:43:12.961Z,68.65
2018-11-28T07:45:46.649Z,71.42
2018-11-28T07:48:16.468Z,77.92
2018-11-28T07:50:44.719Z,79.05
2018-11-28T07:53:12.777Z,83.03
2018-11-28T07:55:41.759Z,68.12
2018-11-28T07:58:11.030Z,83.72
2018-11-28T08:00:40.420Z,83.35
2018-11-28T08:03:09.528Z,79.92
2018-11-28T08:05:39.336Z,69.80
2018-11-28T08:08:09.960Z,68.28
2018-11-28T08:10:39.589Z,71.20
2018-11-28T08:13:08.901Z,99.30
2018-11-28T08:15:38.186Z,68.97
2018-11-28T08:18:07.286Z,67.73
2018-11-28T08:20:36.538Z,71.72
2018-11-28T08:23:07.264Z,66.82
2018-11-28T08:28:13.742Z,62.40
2018-11-28T08:30:43.593Z,57.30
2018-11-28T08:33:12.570Z,48.53
2018-11-28T08:35:42.313Z,56.13
2018-11-28T08:38:10.557Z,50.83
2018-11-28T08:40:44.437Z,61.23
2018-11-28T08:43:20.005Z,52.43
2018-11-28T08:45:49.989Z,67.93
2018-11-28T08:48:19.362Z,62.10
2018-11-28T08:50:48.341Z,63.57
2018-11-28T08:53:18.119Z,63.60
2018-11-28T08:55:53.767Z,62.73
2018-11-28T08:58:24.042Z,69.33
2018-11-28T09:00:53.104Z,57.00
2018-11-28T09:03:21.336Z,62.23
2018-11-28T09:05:49.664Z,56.90
2018-11-28T09:08:19.098Z,66.07
2018-11-28T09:10:48.431Z,52.60
2018-11-28T09:13:23.816Z,59.20
2018-11-28T09:15:53.696Z,73.43
2018-11-28T09:18:23.188Z,67.03
2018-11-28T09:20:52.932Z,56.07
2018-11-28T09:23:21.232Z,55.10
2018-11-28T09:25:58.540Z,59.73
2018-11-28T09:28:28.638Z,54.83
2018-11-28T09:30:57.613Z,71.80
2018-11-28T09:33:26.403Z,117.17
2018-11-28T09:35:58.749Z,50.87
2018-11-28T09:38:27.310Z,54.63
2018-11-28T09:41:01.840Z,66.93
2018-11-28T09:43:31.139Z,50.90
2018-11-28T09:46:00.261Z,73.33
2018-11-28T09:48:29.258Z,75.10
2018-11-28T09:50:59.785Z,59.27
2018-11-28T09:53:28.828Z,53.80
2018-11-28T09:55:57.548Z,47.10
2018-11-28T09:58:27.176Z,53.20
2018-11-28T10:00:56.142Z,44.50
2018-11-28T10:03:24.359Z,45.33
2018-11-28T10:05:55.099Z,61.80
2018-11-28T10:08:24.759Z,54.47
2018-11-28T10:10:53.061Z,41.30
2018-11-28T10:13:21.339Z,48.00
2018-11-28T10:15:49.511Z,38.17
2018-11-28T10:18:18.355Z,46.97
2018-11-28T10:20:52.643Z,71.83
2018-11-28T10:23:21.714Z,35.47
2018-11-28T10:25:54.576Z,37.20
2018-11-28T10:28:23.374Z,42.63
2018-11-28T10:30:51.896Z,38.70
2018-11-28T10:33:22.504Z,36.50
2018-11-28T10:35:51.464Z,42.97
2018-11-28T10:38:20.587Z,39.63
2018-11-28T10:40:49.338Z,46.30
2018-11-28T10:43:17.794Z,46.67
2018-11-28T10:45:46.523Z,31.50
2018-11-28T10:48:15.270Z,24.57
2018-11-28T10:50:45.142Z,73.80
2018-11-28T10:53:14.915Z,24.73
2018-11-28T10:55:51.219Z,28.53
2018-11-28T10:58:25.032Z,26.67
2018-11-28T11:00:58.831Z,20.97
2018-11-28T11:03:32.861Z,22.17
2018-11-28T11:06:07.673Z,20.23
2018-11-28T11:08:42.817Z,51.13
2018-11-28T11:11:17.042Z,21.50
2018-11-28T11:13:54.452Z,22.97
2018-11-28T11:16:28.232Z,20.20
2018-11-28T11:18:58.202Z,26.90
2018-11-28T11:21:28.846Z,21.50
2018-11-28T11:23:58.177Z,28.27
2018-11-28T11:26:27.916Z,20.40
2018-11-28T11:28:57.592Z,21.87
2018-11-28T11:31:27.715Z,24.23
2018-11-28T11:33:56.099Z,24.77
2018-11-28T11:36:25.047Z,16.10
2018-11-28T11:38:54.697Z,21.23
2018-11-28T11:41:23.883Z,15.70
2018-11-28T11:43:53.051Z,16.07
2018-11-28T11:46:23.427Z,18.20
2018-11-28T11:48:53.319Z,14.13
2018-11-28T11:51:23.953Z,19.53
2018-11-28T11:53:52.189Z,19.67
2018-11-28T11:56:33.064Z,16.40
2018-11-28T11:59:03.163Z,12.73
2018-11-28T12:01:39.768Z,23.23
2018-11-28T12:04:09.296Z,40.47
2018-11-28T12:06:41.765Z,16.63
2018-11-28T12:09:10.660Z,17.13
2018-11-28T12:11:40.266Z,14.97
2018-11-28T12:14:10.161Z,19.77
2018-11-28T12:16:39.152Z,13.37
2018-11-28T12:19:09.076Z,13.67
2018-11-28T12:21:37.419Z,19.40
2018-11-28T12:24:07.174Z,14.50
2018-11-28T12:26:39.782Z,13.40
2018-11-28T12:29:11.834Z,12.50
2018-11-28T12:31:41.185Z,12.50
2018-11-28T12:34:16.160Z,12.50
2018-11-28T12:36:44.729Z,12.30
2018-11-28T12:39:13.518Z,30.17
2018-11-28T12:41:42.742Z,12.10
2018-11-28T12:44:14.311Z,10.60
2018-11-28T12:46:44.087Z,18.97
2018-11-28T12:49:13.461Z,10.63
2018-11-28T12:51:43.614Z,12.80
2018-11-28T12:54:11.985Z,14.13
2018-11-28T12:56:42.724Z,21.97
2018-11-28T12:59:12.180Z,15.07
2018-11-28T13:01:41.608Z,25.30
2018-11-28T13:04:14.313Z,13.90
2018-11-28T13:06:44.332Z,15.70
2018-11-28T13:09:12.708Z,15.33
2018-11-28T13:11:41.708Z,14.83
2018-11-28T13:14:10.845Z,18.63
2018-11-28T13:16:41.060Z,18.90
2018-11-28T13:19:09.670Z,16.10
2018-11-28T13:21:39.477Z,16.67
2018-11-28T13:24:11.388Z,18.67
2018-11-28T13:26:47.583Z,31.13
2018-11-28T13:29:16.221Z,18.57
2018-11-28T13:31:46.407Z,10.00
2018-11-28T13:34:16.107Z,10.27
2018-11-28T13:36:45.621Z,16.83
2018-11-28T13:39:13.911Z,16.60
2018-11-28T13:41:50.197Z,21.33
2018-11-28T13:44:23.255Z,9.47
2018-11-28T13:46:54.692Z,9.77
2018-11-28T13:49:26.184Z,9.33
2018-11-28T13:51:55.794Z,14.70
2018-11-28T13:54:23.917Z,10.77
2018-11-28T13:56:59.713Z,8.60
2018-11-28T13:59:24.419Z,28.23
2018-11-28T14:01:54.295Z,8.97
2018-11-28T14:04:23.027Z,7.07
2018-11-28T14:06:51.562Z,19.97
2018-11-28T14:09:20.338Z,5.27
2018-11-28T14:11:50.243Z,11.23
2018-11-28T14:14:18.622Z,12.90
2018-11-28T14:16:47.421Z,7.73
2018-11-28T14:19:16.823Z,10.07
2018-11-28T14:21:45.524Z,8.00
2018-11-28T14:24:14.344Z,10.70
2018-11-28T14:26:50.507Z,8.80
2018-11-28T14:29:20.752Z,9.20
2018-11-28T14:31:51.668Z,11.23
2018-11-28T14:34:20.019Z,19.13
2018-11-28T14:36:49.146Z,11.30
2018-11-28T14:39:17.420Z,13.63
2018-11-28T14:44:23.083Z,12.43
2018-11-28T14:46:54.095Z,14.27
2018-11-28T14:49:23.126Z,10.70
2018-11-28T14:51:52.442Z,23.87
2018-11-28T14:54:21.650Z,13.10
2018-11-28T14:56:53.985Z,9.90
2018-11-28T14:59:23.492Z,11.63
2018-11-28T15:01:52.206Z,8.67
2018-11-28T15:04:21.315Z,19.30
2018-11-28T15:06:56.126Z,15.37
2018-11-28T15:09:31.559Z,20.83
2018-11-28T15:12:01.666Z,22.63
2018-11-28T15:14:30.450Z,34.07
2018-11-28T15:16:58.801Z,41.97
2018-11-28T15:19:27.826Z,49.30
2018-11-28T15:21:56.516Z,67.13
2018-11-28T15:24:26.131Z,68.50
2018-11-28T15:26:54.395Z,51.90
2018-11-28T15:29:23.617Z,49.80
2018-11-28T15:31:52.999Z,21.47
2018-11-28T15:34:21.272Z,22.03
2018-11-28T15:36:51.181Z,23.17
2018-11-28T15:39:19.674Z,18.70
2018-11-28T15:42:00.027Z,17.57
2018-11-28T15:44:33.140Z,18.87
2018-11-28T15:47:04.163Z,16.80
2018-11-28T15:49:34.505Z,16.13
2018-11-28T15:52:03.958Z,24.47
2018-11-28T15:54:33.868Z,21.57
2018-11-28T15:57:04.646Z,26.43
2018-11-28T15:59:34.352Z,38.63
2018-11-28T16:02:05.162Z,55.17
2018-11-28T16:04:35.139Z,36.55
2018-11-28T16:07:04.908Z,17.87
2018-11-28T16:09:39.231Z,15.83
2018-11-28T16:12:17.511Z,11.45
2018-11-28T16:14:52.058Z,16.35
2018-11-28T16:17:22.280Z,15.75
2018-11-28T16:19:53.113Z,31.75
2018-11-28T16:22:22.421Z,40.15
2018-11-28T16:24:53.568Z,41.33
2018-11-28T16:27:26.260Z,46.77
2018-11-28T16:29:55.051Z,42.95
2018-11-28T16:32:25.122Z,42.38
2018-11-28T16:34:53.527Z,60.88
2018-11-28T16:37:24.503Z,40.35
2018-11-28T16:39:53.262Z,40.33
2018-11-28T16:42:31.807Z,46.28
2018-11-28T16:45:03.219Z,50.30
2018-11-28T16:47:33.476Z,51.28
2018-11-28T16:50:03.419Z,55.83
2018-11-28T16:52:32.446Z,52.43
2018-11-28T16:55:10.435Z,52.27
2018-11-28T16:57:41.951Z,46.75
2018-11-28T17:00:18.888Z,26.85
2018-11-28T17:02:49.443Z,27.25
2018-11-28T17:05:19.692Z,90.67
2018-11-28T17:07:49.409Z,50.28
2018-11-28T17:10:24.126Z,67.53
2018-11-28T17:12:53.371Z,40.65
2018-11-28T17:15:24.915Z,42.55
2018-11-28T17:17:56.484Z,49.67
2018-11-28T17:20:29.716Z,54.48
2018-11-28T17:23:02.046Z,141.47
2018-11-28T17:28:07.413Z,110.60
2018-11-28T17:30:37.127Z,184.28
2018-11-28T17:33:07.222Z,136.55
2018-11-28T17:35:43.799Z,97.62
2018-11-28T17:38:13.701Z,94.32
2018-11-28T17:40:43.448Z,76.10
2018-11-28T17:43:16.306Z,37.08
2018-11-28T17:45:46.226Z,36.08
2018-11-28T17:48:15.659Z,32.75
2018-11-28T17:50:45.993Z,25.37
2018-11-28T17:58:35.333Z,27.98
2018-11-28T18:01:04.870Z,38.53
2018-11-28T18:03:33.403Z,49.38
2018-11-28T18:06:03.270Z,58.95
2018-11-28T18:08:32.271Z,58.80
2018-11-28T18:11:13.167Z,91.92
2018-11-28T18:13:42.254Z,152.40
2018-11-28T18:16:14.276Z,196.60
2018-11-28T18:18:46.552Z,135.15
2018-11-28T18:21:17.351Z,134.32
2018-11-28T18:23:48.458Z,103.42
2018-11-28T18:26:19.573Z,44.20
2018-11-28T18:28:50.811Z,41.70
2018-11-28T18:31:21.950Z,46.08
2018-11-28T18:33:51.520Z,46.55
2018-11-28T18:36:26.201Z,93.35
2018-11-28T18:38:57.139Z,56.85
2018-11-28T18:41:30.144Z,56.20
2018-11-28T18:44:00.932Z,68.72
2018-11-28T18:46:31.683Z,105.67
2018-11-28T18:49:03.223Z,107.75
2018-11-28T18:51:35.609Z,92.90
2018-11-28T18:54:04.316Z,53.05
2018-11-28T18:56:35.051Z,47.27
2018-11-28T18:59:09.114Z,38.23
2018-11-28T19:01:41.071Z,43.33
2018-11-28T19:04:16.155Z,44.33
2018-11-28T19:06:48.090Z,38.95
2018-11-28T19:09:30.136Z,36.40
2018-11-28T19:12:13.323Z,31.10
2018-11-28T19:17:27.430Z,41.45
2018-11-28T19:19:58.092Z,31.57
2018-11-28T19:22:28.551Z,39.53
2018-11-28T19:25:00.787Z,40.12
2018-11-28T19:27:31.719Z,35.68
2018-11-28T19:30:03.380Z,60.52
2018-11-28T19:35:07.936Z,51.75
2018-11-28T19:37:36.373Z,65.47
2018-11-28T19:40:12.846Z,72.35
2018-11-28T19:42:51.508Z,72.25
2018-11-28T19:45:26.834Z,62.65
2018-11-28T19:48:05.024Z,68.70
2018-11-28T19:50:43.088Z,95.47
2018-11-28T19:53:12.190Z,143.72
2018-11-28T19:55:47.248Z,112.30
2018-11-28T19:58:23.328Z,95.28
2018-11-28T20:00:55.468Z,81.28
2018-11-28T20:03:25.748Z,70.32
2018-11-28T20:06:00.486Z,75.87
2018-11-28T20:08:36.233Z,67.27
2018-11-28T20:11:11.025Z,83.03
2018-11-28T20:13:44.280Z,68.02
2018-11-28T20:16:20.871Z,77.08
2018-11-28T20:18:51.639Z,72.78
2018-11-28T20:21:24.210Z,60.92
2018-11-28T20:23:53.923Z,54.38
2018-11-28T20:26:23.749Z,55.05
2018-11-28T20:28:54.493Z,61.25
2018-11-28T20:31:31.880Z,56.23
2018-11-28T20:34:06.328Z,59.60
2018-11-28T20:36:36.147Z,53.17
2018-11-28T20:41:44.198Z,64.37
2018-11-28T20:44:18.450Z,64.75
2018-11-28T20:47:04.197Z,67.20
2018-11-28T20:49:33.747Z,64.30
2018-11-28T20:52:06.319Z,64.55
2018-11-28T20:54:37.871Z,76.07
2018-11-28T20:57:08.806Z,68.05
2018-11-28T20:59:38.467Z,66.55
2018-11-28T21:02:06.397Z,68.65
2018-11-28T21:04:35.044Z,72.72
2018-11-28T21:07:06.652Z,73.45
2018-11-28T21:09:40.368Z,78.42
2018-11-28T21:12:14.236Z,74.70
2018-11-28T21:14:45.895Z,75.55
2018-11-28T21:17:19.367Z,64.47
2018-11-28T21:19:50.978Z,82.25
2018-11-28T21:22:28.645Z,89.77
2018-11-28T21:25:03.994Z,88.40
2018-11-28T21:27:35.637Z,91.53
2018-11-28T21:30:12.953Z,66.15
2018-11-28T21:32:43.267Z,67.32
2018-11-28T21:35:24.018Z,74.45
2018-11-28T21:37:56.151Z,65.20
2018-11-28T21:40:26.389Z,63.23
2018-11-28T21:42:57.182Z,65.28
2018-11-28T21:45:38.739Z,57.23
2018-11-28T21:48:10.480Z,69.75
2018-11-28T21:50:43.822Z,70.08
2018-11-28T21:53:16.869Z,65.42
2018-11-28T21:55:47.040Z,77.22
2018-11-28T21:58:26.705Z,65.78
2018-11-28T22:01:02.318Z,77.03
2018-11-28T22:03:31.687Z,67.58
2018-11-28T22:06:01.224Z,76.12
2018-11-28T22:08:30.142Z,64.85
2018-11-28T22:10:59.706Z,65.75
2018-11-28T22:16:08.078Z,71.20
2018-11-28T22:18:37.008Z,63.25
2018-11-28T22:21:06.175Z,68.33
2018-11-28T22:23:36.450Z,59.05
2018-11-28T22:26:06.299Z,59.75
2018-11-28T22:28:43.037Z,69.65
2018-11-28T22:31:12.735Z,66.62
2018-11-28T22:33:42.842Z,59.63
2018-11-28T22:36:11.913Z,62.58
2018-11-28T22:38:40.162Z,60.30
2018-11-28T22:41:09.685Z,58.23
2018-11-28T22:43:37.802Z,61.45
2018-11-28T22:46:06.307Z,61.83
2018-11-28T22:48:34.679Z,63.25
2018-11-28T22:51:04.384Z,69.65
2018-11-28T22:53:32.499Z,96.75
2018-11-28T22:56:00.899Z,77.15
2018-11-28T22:58:30.009Z,69.07
2018-11-28T23:01:05.394Z,81.78
2018-11-28T23:03:34.192Z,58.87
2018-11-28T23:06:03.871Z,61.25
2018-11-28T23:08:32.985Z,62.40
2018-11-28T23:11:02.086Z,66.87
2018-11-28T23:16:08.844Z,53.87
2018-11-28T23:18:38.515Z,63.30
2018-11-28T23:21:08.193Z,74.32
2018-11-28T23:23:36.362Z,61.45
2018-11-28T23:26:05.477Z,68.55
2018-11-28T23:28:39.204Z,59.77
2018-11-28T23:31:08.771Z,68.87
2018-11-28T23:33:36.983Z,58.35
2018-11-28T23:36:05.591Z,64.85
2018-11-28T23:38:33.877Z,61.37
2018-11-28T23:41:02.833Z,67.82
2018-11-28T23:43:34.615Z,61.83
2018-11-28T23:46:04.946Z,61.40
2018-11-28T23:48:32.988Z,64.87
2018-11-28T23:51:01.844Z,64.20
2018-11-28T23:53:31.991Z,67.80
2018-11-28T23:56:00.366Z,64.90
2018-11-28T23:58:29.473Z,63.65
